Terminal Aerodrome Forecast
Issued by NWS Sterling, VA

Current Version | Previous Version | Text Only | Print | Product List | Glossary Off
Versions: 1 2 3 4 5 6 7 8 9 10 11 12 13 14 15 16 17 18 19 20 21 22 23

000
FTUS41 KLWX 271100 AAC
TAFIAD
TAF AMD
KIAD 271117Z 2711/2812 33013G21KT 6SM -SN OVC040
     FM271400 32013G20KT P6SM OVC040
     FM272000 32013G20KT P6SM BKN070
     FM280600 32010KT P6SM FEW100=

USA.gov is the U.S. government's official web portal to all federal, state and local government web resources and services.